sensor_id;sensor_type;location;lat;lon;timestamp;pressure;altitude;pressure_sealevel;temperature;humidity
78317;BME280;67572;50.930;18.276;2023-07-22T00:01:21;98509.25;;;16.43;87.72
78317;BME280;67572;50.930;18.276;2023-07-22T00:04:26;98500.13;;;16.62;86.01
78317;BME280;67572;50.930;18.276;2023-07-22T00:07:29;98508.13;;;16.54;85.86
78317;BME280;67572;50.930;18.276;2023-07-22T00:10:35;98511.16;;;16.51;86.29
78317;BME280;67572;50.930;18.276;2023-07-22T00:13:42;98509.72;;;16.64;85.67
78317;BME280;67572;50.930;18.276;2023-07-22T00:16:46;98501.63;;;16.82;84.96
78317;BME280;67572;50.930;18.276;2023-07-22T00:19:50;98498.94;;;16.82;84.80
78317;BME280;67572;50.930;18.276;2023-07-22T00:22:53;98495.16;;;16.93;84.70
78317;BME280;67572;50.930;18.276;2023-07-22T00:25:58;98516.69;;;16.75;84.38
78317;BME280;67572;50.930;18.276;2023-07-22T00:29:02;98512.91;;;16.86;84.53
78317;BME280;67572;50.930;18.276;2023-07-22T00:32:07;98510.09;;;16.96;83.48
78317;BME280;67572;50.930;18.276;2023-07-22T00:35:11;98511.72;;;16.88;84.41
78317;BME280;67572;50.930;18.276;2023-07-22T00:38:15;98508.72;;;16.65;84.68
78317;BME280;67572;50.930;18.276;2023-07-22T00:41:20;98510.69;;;16.55;85.02
78317;BME280;67572;50.930;18.276;2023-07-22T00:44:24;98503.81;;;16.61;84.89
78317;BME280;67572;50.930;18.276;2023-07-22T00:47:27;98505.50;;;16.62;84.74
78317;BME280;67572;50.930;18.276;2023-07-22T00:50:31;98493.53;;;16.74;84.19
78317;BME280;67572;50.930;18.276;2023-07-22T00:53:36;98494.88;;;16.70;83.66
78317;BME280;67572;50.930;18.276;2023-07-22T00:56:41;98489.34;;;16.72;83.42
78317;BME280;67572;50.930;18.276;2023-07-22T00:59:47;98500.69;;;16.65;83.89
78317;BME280;67572;50.930;18.276;2023-07-22T01:02:50;98504.78;;;16.52;84.26
78317;BME280;67572;50.930;18.276;2023-07-22T01:05:54;98520.44;;;16.38;84.83
78317;BME280;67572;50.930;18.276;2023-07-22T01:13:02;98520.56;;;16.29;86.57
78317;BME280;67572;50.930;18.276;2023-07-22T01:16:08;98514.94;;;16.40;86.38
78317;BME280;67572;50.930;18.276;2023-07-22T01:19:14;98500.13;;;16.62;85.45
78317;BME280;67572;50.930;18.276;2023-07-22T01:22:21;98505.91;;;16.41;85.86
78317;BME280;67572;50.930;18.276;2023-07-22T01:25:28;98511.16;;;16.25;86.93
78317;BME280;67572;50.930;18.276;2023-07-22T01:28:34;98505.47;;;16.28;87.69
78317;BME280;67572;50.930;18.276;2023-07-22T01:31:38;98502.84;;;16.36;86.98
78317;BME280;67572;50.930;18.276;2023-07-22T01:34:41;98496.19;;;16.22;87.33
78317;BME280;67572;50.930;18.276;2023-07-22T01:37:45;98508.59;;;16.23;87.29
78317;BME280;67572;50.930;18.276;2023-07-22T01:40:50;98509.31;;;16.07;87.70
78317;BME280;67572;50.930;18.276;2023-07-22T01:43:53;98506.06;;;15.96;88.59
78317;BME280;67572;50.930;18.276;2023-07-22T01:46:57;98504.50;;;16.11;88.27
78317;BME280;67572;50.930;18.276;2023-07-22T01:50:01;98511.38;;;16.14;88.14
78317;BME280;67572;50.930;18.276;2023-07-22T01:53:04;98505.56;;;16.18;87.23
78317;BME280;67572;50.930;18.276;2023-07-22T01:56:09;98510.31;;;16.06;88.26
78317;BME280;67572;50.930;18.276;2023-07-22T01:59:30;98525.72;;;15.87;89.23
78317;BME280;67572;50.930;18.276;2023-07-22T02:02:34;98514.63;;;15.81;90.01
78317;BME280;67572;50.930;18.276;2023-07-22T02:05:38;98511.28;;;15.79;90.42
78317;BME280;67572;50.930;18.276;2023-07-22T02:08:41;98520.59;;;15.75;91.09
78317;BME280;67572;50.930;18.276;2023-07-22T02:11:44;98525.03;;;15.67;91.77
78317;BME280;67572;50.930;18.276;2023-07-22T02:14:49;98525.88;;;15.67;92.08
78317;BME280;67572;50.930;18.276;2023-07-22T02:17:53;98521.59;;;15.74;92.39
78317;BME280;67572;50.930;18.276;2023-07-22T02:20:57;98529.72;;;15.82;92.37
78317;BME280;67572;50.930;18.276;2023-07-22T02:24:01;98529.41;;;15.86;91.88
78317;BME280;67572;50.930;18.276;2023-07-22T02:27:05;98532.31;;;15.74;92.39
78317;BME280;67572;50.930;18.276;2023-07-22T02:30:12;98532.78;;;15.70;92.46
78317;BME280;67572;50.930;18.276;2023-07-22T02:33:15;98538.03;;;15.62;93.40
78317;BME280;67572;50.930;18.276;2023-07-22T02:36:19;98543.34;;;15.71;93.56
78317;BME280;67572;50.930;18.276;2023-07-22T02:39:22;98554.25;;;15.60;94.03
78317;BME280;67572;50.930;18.276;2023-07-22T02:42:26;98561.03;;;15.64;94.27
78317;BME280;67572;50.930;18.276;2023-07-22T02:48:43;98554.28;;;15.78;93.68
78317;BME280;67572;50.930;18.276;2023-07-22T02:51:46;98555.69;;;15.64;93.50
78317;BME280;67572;50.930;18.276;2023-07-22T02:55:05;98575.28;;;15.55;94.05
78317;BME280;67572;50.930;18.276;2023-07-22T02:58:09;98582.94;;;15.50;94.22
78317;BME280;67572;50.930;18.276;2023-07-22T03:01:13;98578.97;;;15.54;94.04
78317;BME280;67572;50.930;18.276;2023-07-22T03:04:18;98578.56;;;15.49;93.97
78317;BME280;67572;50.930;18.276;2023-07-22T03:07:22;98583.06;;;15.48;93.83
78317;BME280;67572;50.930;18.276;2023-07-22T03:10:29;98589.16;;;15.50;93.30
78317;BME280;67572;50.930;18.276;2023-07-22T03:13:32;98588.44;;;15.48;92.49
78317;BME280;67572;50.930;18.276;2023-07-22T03:16:37;98594.41;;;15.42;92.33
78317;BME280;67572;50.930;18.276;2023-07-22T03:19:42;98603.81;;;15.46;91.85
78317;BME280;67572;50.930;18.276;2023-07-22T03:22:50;98601.97;;;15.47;91.28
78317;BME280;67572;50.930;18.276;2023-07-22T03:25:54;98605.31;;;15.59;90.71
78317;BME280;67572;50.930;18.276;2023-07-22T03:28:57;98609.75;;;15.50;90.71
78317;BME280;67572;50.930;18.276;2023-07-22T03:32:01;98610.72;;;15.49;90.78
78317;BME280;67572;50.930;18.276;2023-07-22T03:35:07;98613.69;;;15.46;90.72
78317;BME280;67572;50.930;18.276;2023-07-22T03:38:13;98615.53;;;15.45;90.57
78317;BME280;67572;50.930;18.276;2023-07-22T03:41:17;98620.94;;;15.36;90.46
78317;BME280;67572;50.930;18.276;2023-07-22T03:44:20;98624.47;;;15.36;90.41
78317;BME280;67572;50.930;18.276;2023-07-22T03:47:24;98625.00;;;15.40;90.17
78317;BME280;67572;50.930;18.276;2023-07-22T03:50:29;98628.88;;;15.27;90.47
78317;BME280;67572;50.930;18.276;2023-07-22T03:53:32;98636.09;;;15.17;90.54
78317;BME280;67572;50.930;18.276;2023-07-22T03:56:39;98638.19;;;15.23;90.11
78317;BME280;67572;50.930;18.276;2023-07-22T03:59:43;98634.00;;;15.11;90.10
78317;BME280;67572;50.930;18.276;2023-07-22T04:02:47;98642.03;;;15.11;90.19
78317;BME280;67572;50.930;18.276;2023-07-22T04:05:56;98641.53;;;14.98;90.43
78317;BME280;67572;50.930;18.276;2023-07-22T04:08:59;98647.72;;;14.98;90.50
78317;BME280;67572;50.930;18.276;2023-07-22T04:12:03;98649.94;;;15.03;90.18
78317;BME280;67572;50.930;18.276;2023-07-22T04:15:07;98650.78;;;15.13;90.10
78317;BME280;67572;50.930;18.276;2023-07-22T04:18:11;98648.22;;;15.21;89.55
78317;BME280;67572;50.930;18.276;2023-07-22T04:21:16;98649.66;;;15.06;89.84
78317;BME280;67572;50.930;18.276;2023-07-22T04:24:19;98650.78;;;15.04;89.67
78317;BME280;67572;50.930;18.276;2023-07-22T04:27:23;98659.22;;;15.09;89.36
78317;BME280;67572;50.930;18.276;2023-07-22T04:30:27;98662.19;;;15.15;89.52
78317;BME280;67572;50.930;18.276;2023-07-22T04:33:30;98662.75;;;15.09;89.44
78317;BME280;67572;50.930;18.276;2023-07-22T04:36:36;98668.63;;;15.22;89.13
78317;BME280;67572;50.930;18.276;2023-07-22T04:39:40;98668.94;;;15.19;89.03
78317;BME280;67572;50.930;18.276;2023-07-22T04:42:43;98669.06;;;15.18;89.18
78317;BME280;67572;50.930;18.276;2023-07-22T04:45:48;98678.81;;;15.19;88.97
78317;BME280;67572;50.930;18.276;2023-07-22T04:51:50;98675.00;;;15.21;89.41
78317;BME280;67572;50.930;18.276;2023-07-22T04:54:53;98686.41;;;15.23;88.93
78317;BME280;67572;50.930;18.276;2023-07-22T04:59:26;98687.47;;;15.40;88.62
78317;BME280;67572;50.930;18.276;2023-07-22T05:02:30;98684.50;;;15.43;88.17
78317;BME280;67572;50.930;18.276;2023-07-22T05:05:34;98688.19;;;15.42;87.83
78317;BME280;67572;50.930;18.276;2023-07-22T05:08:38;98690.56;;;15.45;87.21
78317;BME280;67572;50.930;18.276;2023-07-22T05:11:41;98694.59;;;15.59;87.35
78317;BME280;67572;50.930;18.276;2023-07-22T05:14:47;98698.78;;;15.71;87.54
78317;BME280;67572;50.930;18.276;2023-07-22T05:17:51;98700.28;;;15.46;86.29
78317;BME280;67572;50.930;18.276;2023-07-22T05:20:55;98704.19;;;15.62;86.51
78317;BME280;67572;50.930;18.276;2023-07-22T05:23:58;98707.22;;;15.76;87.06
78317;BME280;67572;50.930;18.276;2023-07-22T05:27:03;98703.41;;;15.79;86.13
78317;BME280;67572;50.930;18.276;2023-07-22T05:30:12;98707.81;;;15.80;85.77
78317;BME280;67572;50.930;18.276;2023-07-22T05:33:18;98707.81;;;15.80;85.80
78317;BME280;67572;50.930;18.276;2023-07-22T05:36:22;98711.16;;;15.82;85.09
78317;BME280;67572;50.930;18.276;2023-07-22T05:39:27;98710.69;;;15.87;84.96
78317;BME280;67572;50.930;18.276;2023-07-22T05:42:31;98711.59;;;16.05;84.34
78317;BME280;67572;50.930;18.276;2023-07-22T05:45:36;98717.75;;;16.15;83.70
78317;BME280;67572;50.930;18.276;2023-07-22T05:48:39;98721.19;;;16.07;83.21
78317;BME280;67572;50.930;18.276;2023-07-22T05:51:43;98727.75;;;15.95;83.18
78317;BME280;67572;50.930;18.276;2023-07-22T05:54:46;98724.75;;;15.98;83.41
78317;BME280;67572;50.930;18.276;2023-07-22T05:57:50;98724.34;;;16.21;83.83
78317;BME280;67572;50.930;18.276;2023-07-22T06:00:55;98720.00;;;16.37;83.45
78317;BME280;67572;50.930;18.276;2023-07-22T06:03:58;98724.13;;;16.32;82.28
78317;BME280;67572;50.930;18.276;2023-07-22T06:07:02;98733.69;;;16.17;82.35
78317;BME280;67572;50.930;18.276;2023-07-22T06:10:06;98745.31;;;16.35;81.75
78317;BME280;67572;50.930;18.276;2023-07-22T06:15:24;98752.28;;;16.46;81.20
78317;BME280;67572;50.930;18.276;2023-07-22T06:18:29;98754.59;;;16.41;80.42
78317;BME280;67572;50.930;18.276;2023-07-22T06:21:32;98743.53;;;16.71;80.55
78317;BME280;67572;50.930;18.276;2023-07-22T06:24:36;98740.22;;;16.95;79.92
78317;BME280;67572;50.930;18.276;2023-07-22T06:27:40;98745.66;;;16.85;78.28
78317;BME280;67572;50.930;18.276;2023-07-22T06:30:45;98758.38;;;17.01;79.44
78317;BME280;67572;50.930;18.276;2023-07-22T06:33:48;98758.06;;;17.04;77.83
78317;BME280;67572;50.930;18.276;2023-07-22T06:36:52;98759.13;;;17.11;77.29
78317;BME280;67572;50.930;18.276;2023-07-22T06:39:55;98761.03;;;17.19;77.30
78317;BME280;67572;50.930;18.276;2023-07-22T06:42:59;98758.00;;;17.66;76.47
78317;BME280;67572;50.930;18.276;2023-07-22T06:46:03;98776.50;;;17.43;76.10
78317;BME280;67572;50.930;18.276;2023-07-22T06:49:08;98778.94;;;17.54;75.93
78317;BME280;67572;50.930;18.276;2023-07-22T06:52:12;98786.78;;;17.47;74.79
78317;BME280;67572;50.930;18.276;2023-07-22T06:55:16;98791.03;;;17.32;76.71
78317;BME280;67572;50.930;18.276;2023-07-22T06:58:20;98785.91;;;17.21;77.27
78317;BME280;67572;50.930;18.276;2023-07-22T07:01:26;98791.22;;;16.95;76.28
78317;BME280;67572;50.930;18.276;2023-07-22T07:04:29;98796.38;;;17.50;76.83
78317;BME280;67572;50.930;18.276;2023-07-22T07:07:33;98794.50;;;17.68;74.01
78317;BME280;67572;50.930;18.276;2023-07-22T07:10:37;98797.00;;;17.44;73.79
78317;BME280;67572;50.930;18.276;2023-07-22T07:13:42;98797.25;;;17.77;74.14
78317;BME280;67572;50.930;18.276;2023-07-22T07:16:49;98802.13;;;17.55;75.01
78317;BME280;67572;50.930;18.276;2023-07-22T07:19:53;98809.91;;;17.84;73.45
78317;BME280;67572;50.930;18.276;2023-07-22T07:22:56;98796.75;;;17.81;72.63
78317;BME280;67572;50.930;18.276;2023-07-22T07:26:00;98805.25;;;17.68;73.29
78317;BME280;67572;50.930;18.276;2023-07-22T07:29:04;98806.63;;;17.72;71.47
78317;BME280;67572;50.930;18.276;2023-07-22T07:32:09;98811.44;;;17.87;71.45
78317;BME280;67572;50.930;18.276;2023-07-22T07:35:14;98803.06;;;17.98;72.07
78317;BME280;67572;50.930;18.276;2023-07-22T07:38:17;98815.28;;;17.84;70.74
78317;BME280;67572;50.930;18.276;2023-07-22T07:41:21;98819.69;;;18.27;72.10
78317;BME280;67572;50.930;18.276;2023-07-22T07:44:24;98823.75;;;18.32;69.08
78317;BME280;67572;50.930;18.276;2023-07-22T07:47:29;98820.19;;;18.23;68.61
78317;BME280;67572;50.930;18.276;2023-07-22T07:50:33;98821.25;;;18.30;68.58
78317;BME280;67572;50.930;18.276;2023-07-22T07:53:36;98824.78;;;18.81;66.79
78317;BME280;67572;50.930;18.276;2023-07-22T07:56:40;98823.78;;;18.82;66.31
78317;BME280;67572;50.930;18.276;2023-07-22T07:59:43;98814.50;;;18.76;66.55
78317;BME280;67572;50.930;18.276;2023-07-22T08:02:48;98815.38;;;19.01;65.06
78317;BME280;67572;50.930;18.276;2023-07-22T08:05:52;98823.81;;;19.31;66.03
78317;BME280;67572;50.930;18.276;2023-07-22T08:08:55;98817.75;;;19.04;63.76
78317;BME280;67572;50.930;18.276;2023-07-22T08:11:59;98824.19;;;19.28;63.43
78317;BME280;67572;50.930;18.276;2023-07-22T08:15:04;98826.84;;;19.11;62.46
78317;BME280;67572;50.930;18.276;2023-07-22T08:19:54;98829.56;;;19.52;61.83
78317;BME280;67572;50.930;18.276;2023-07-22T08:22:58;98834.59;;;19.06;63.09
78317;BME280;67572;50.930;18.276;2023-07-22T08:26:01;98832.94;;;19.30;64.19
78317;BME280;67572;50.930;18.276;2023-07-22T08:29:12;98844.22;;;19.90;62.89
78317;BME280;67572;50.930;18.276;2023-07-22T08:32:18;98837.97;;;19.49;63.52
78317;BME280;67572;50.930;18.276;2023-07-22T08:35:23;98851.41;;;20.06;60.54
78317;BME280;67572;50.930;18.276;2023-07-22T08:38:28;98836.47;;;19.71;60.20
78317;BME280;67572;50.930;18.276;2023-07-22T08:41:33;98849.47;;;19.43;61.74
78317;BME280;67572;50.930;18.276;2023-07-22T08:44:38;98847.78;;;19.58;60.89
78317;BME280;67572;50.930;18.276;2023-07-22T08:47:46;98852.34;;;19.66;62.34
78317;BME280;67572;50.930;18.276;2023-07-22T08:50:53;98851.97;;;20.57;61.30
78317;BME280;67572;50.930;18.276;2023-07-22T08:53:58;98858.38;;;19.92;57.13
78317;BME280;67572;50.930;18.276;2023-07-22T08:57:12;98857.47;;;20.08;58.27
78317;BME280;67572;50.930;18.276;2023-07-22T09:00:16;98867.28;;;20.01;58.49
78317;BME280;67572;50.930;18.276;2023-07-22T09:03:20;98859.59;;;19.65;59.98
78317;BME280;67572;50.930;18.276;2023-07-22T09:06:25;98873.69;;;19.27;60.44
78317;BME280;67572;50.930;18.276;2023-07-22T09:09:30;98868.53;;;19.74;58.27
78317;BME280;67572;50.930;18.276;2023-07-22T09:12:35;98871.25;;;20.30;55.27
78317;BME280;67572;50.930;18.276;2023-07-22T09:15:42;98863.97;;;19.75;56.74
78317;BME280;67572;50.930;18.276;2023-07-22T09:18:46;98868.50;;;19.90;58.71
78317;BME280;67572;50.930;18.276;2023-07-22T09:21:51;98875.41;;;19.52;58.89
78317;BME280;67572;50.930;18.276;2023-07-22T09:25:12;98878.91;;;20.02;58.20
78317;BME280;67572;50.930;18.276;2023-07-22T09:28:17;98876.22;;;20.65;56.83
78317;BME280;67572;50.930;18.276;2023-07-22T09:31:21;98867.66;;;20.54;54.74
78317;BME280;67572;50.930;18.276;2023-07-22T09:34:25;98861.56;;;20.60;53.48
78317;BME280;67572;50.930;18.276;2023-07-22T09:37:37;98870.22;;;20.86;53.02
78317;BME280;67572;50.930;18.276;2023-07-22T09:40:41;98866.00;;;20.84;53.41
78317;BME280;67572;50.930;18.276;2023-07-22T09:43:47;98871.53;;;20.59;51.47
78317;BME280;67572;50.930;18.276;2023-07-22T09:46:50;98878.53;;;20.76;51.65
78317;BME280;67572;50.930;18.276;2023-07-22T09:49:54;98876.31;;;20.49;51.83
78317;BME280;67572;50.930;18.276;2023-07-22T09:53:00;98879.66;;;20.43;52.53
78317;BME280;67572;50.930;18.276;2023-07-22T09:56:05;98875.22;;;19.94;53.91
78317;BME280;67572;50.930;18.276;2023-07-22T09:59:10;98888.31;;;20.22;52.42
78317;BME280;67572;50.930;18.276;2023-07-22T10:02:16;98884.13;;;20.75;51.66
78317;BME280;67572;50.930;18.276;2023-07-22T10:05:21;98892.47;;;21.27;49.97
78317;BME280;67572;50.930;18.276;2023-07-22T10:08:30;98884.81;;;21.31;49.67
78317;BME280;67572;50.930;18.276;2023-07-22T10:11:40;98886.41;;;21.17;49.50
78317;BME280;67572;50.930;18.276;2023-07-22T10:14:44;98896.41;;;20.86;51.41
78317;BME280;67572;50.930;18.276;2023-07-22T10:17:49;98898.66;;;21.05;50.17
78317;BME280;67572;50.930;18.276;2023-07-22T10:20:55;98889.56;;;20.98;50.38
78317;BME280;67572;50.930;18.276;2023-07-22T10:24:02;98892.16;;;21.14;50.00
78317;BME280;67572;50.930;18.276;2023-07-22T10:27:07;98886.38;;;21.25;48.43
78317;BME280;67572;50.930;18.276;2023-07-22T10:30:11;98888.91;;;21.50;47.27
78317;BME280;67572;50.930;18.276;2023-07-22T10:33:16;98892.69;;;22.01;46.01
78317;BME280;67572;50.930;18.276;2023-07-22T10:36:20;98886.19;;;21.73;46.27
78317;BME280;67572;50.930;18.276;2023-07-22T10:39:28;98885.59;;;22.53;44.28
78317;BME280;67572;50.930;18.276;2023-07-22T10:42:32;98891.94;;;22.30;44.88
78317;BME280;67572;50.930;18.276;2023-07-22T10:45:40;98890.94;;;22.97;45.29
78317;BME280;67572;50.930;18.276;2023-07-22T10:48:44;98897.03;;;22.84;43.05
78317;BME280;67572;50.930;18.276;2023-07-22T10:51:51;98901.72;;;21.56;45.92
78317;BME280;67572;50.930;18.276;2023-07-22T10:54:56;98894.91;;;21.60;46.14
78317;BME280;67572;50.930;18.276;2023-07-22T10:58:04;98895.44;;;21.78;43.48
78317;BME280;67572;50.930;18.276;2023-07-22T11:01:24;98897.69;;;22.12;42.19
78317;BME280;67572;50.930;18.276;2023-07-22T11:04:28;98901.28;;;21.44;42.82
78317;BME280;67572;50.930;18.276;2023-07-22T11:07:43;98893.78;;;22.15;41.75
78317;BME280;67572;50.930;18.276;2023-07-22T11:10:55;98886.22;;;22.55;41.76
78317;BME280;67572;50.930;18.276;2023-07-22T11:14:13;98897.34;;;21.93;41.12
78317;BME280;67572;50.930;18.276;2023-07-22T11:17:17;98897.94;;;21.65;41.94
78317;BME280;67572;50.930;18.276;2023-07-22T11:20:21;98911.91;;;21.69;43.23
78317;BME280;67572;50.930;18.276;2023-07-22T11:23:25;98904.00;;;21.13;43.66
78317;BME280;67572;50.930;18.276;2023-07-22T11:26:31;98912.53;;;21.33;44.87
78317;BME280;67572;50.930;18.276;2023-07-22T11:29:35;98908.94;;;21.41;45.89
78317;BME280;67572;50.930;18.276;2023-07-22T11:32:42;98915.47;;;21.15;46.25
78317;BME280;67572;50.930;18.276;2023-07-22T11:35:46;98909.84;;;21.02;44.20
78317;BME280;67572;50.930;18.276;2023-07-22T11:38:49;98917.28;;;20.92;44.54
78317;BME280;67572;50.930;18.276;2023-07-22T11:41:54;98912.63;;;20.77;45.91
78317;BME280;67572;50.930;18.276;2023-07-22T11:44:58;98907.97;;;20.71;44.67
78317;BME280;67572;50.930;18.276;2023-07-22T11:48:01;98907.22;;;20.77;45.62
78317;BME280;67572;50.930;18.276;2023-07-22T11:51:11;98911.34;;;20.65;46.60
78317;BME280;67572;50.930;18.276;2023-07-22T11:54:15;98911.94;;;20.28;45.65
78317;BME280;67572;50.930;18.276;2023-07-22T11:57:23;98912.97;;;20.19;46.10
78317;BME280;67572;50.930;18.276;2023-07-22T12:00:26;98913.94;;;20.34;46.38
78317;BME280;67572;50.930;18.276;2023-07-22T12:03:31;98915.94;;;20.57;46.39
78317;BME280;67572;50.930;18.276;2023-07-22T12:06:35;98910.69;;;20.55;46.71
78317;BME280;67572;50.930;18.276;2023-07-22T12:09:38;98917.25;;;20.61;46.85
78317;BME280;67572;50.930;18.276;2023-07-22T12:12:45;98910.00;;;20.61;45.77
78317;BME280;67572;50.930;18.276;2023-07-22T12:15:59;98913.31;;;20.80;45.86
78317;BME280;67572;50.930;18.276;2023-07-22T12:19:03;98911.59;;;20.87;46.56
78317;BME280;67572;50.930;18.276;2023-07-22T12:22:07;98908.94;;;20.70;44.95
78317;BME280;67572;50.930;18.276;2023-07-22T12:28:18;98900.53;;;20.65;46.13
78317;BME280;67572;50.930;18.276;2023-07-22T12:31:21;98903.88;;;21.60;44.68
78317;BME280;67572;50.930;18.276;2023-07-22T12:34:26;98889.50;;;21.37;44.54
78317;BME280;67572;50.930;18.276;2023-07-22T12:37:30;98885.81;;;22.73;42.68
78317;BME280;67572;50.930;18.276;2023-07-22T12:40:34;98886.31;;;22.76;41.95
78317;BME280;67572;50.930;18.276;2023-07-22T12:43:39;98888.22;;;22.97;41.45
78317;BME280;67572;50.930;18.276;2023-07-22T12:46:42;98892.69;;;22.39;40.97
78317;BME280;67572;50.930;18.276;2023-07-22T12:49:46;98890.63;;;22.56;42.91
78317;BME280;67572;50.930;18.276;2023-07-22T12:52:49;98890.22;;;23.24;42.33
78317;BME280;67572;50.930;18.276;2023-07-22T12:55:53;98885.13;;;23.79;40.32
78317;BME280;67572;50.930;18.276;2023-07-22T12:58:58;98884.47;;;23.56;39.85
78317;BME280;67572;50.930;18.276;2023-07-22T13:02:01;98891.22;;;23.02;40.48
78317;BME280;67572;50.930;18.276;2023-07-22T13:05:06;98884.47;;;24.26;39.10
78317;BME280;67572;50.930;18.276;2023-07-22T13:08:09;98881.41;;;24.36;37.57
78317;BME280;67572;50.930;18.276;2023-07-22T13:11:13;98870.16;;;22.68;38.56
78317;BME280;67572;50.930;18.276;2023-07-22T13:14:23;98872.50;;;22.41;39.88
78317;BME280;67572;50.930;18.276;2023-07-22T13:17:27;98871.94;;;22.46;39.85
78317;BME280;67572;50.930;18.276;2023-07-22T13:20:31;98878.19;;;22.47;39.28
78317;BME280;67572;50.930;18.276;2023-07-22T13:23:34;98876.97;;;22.64;39.75
78317;BME280;67572;50.930;18.276;2023-07-22T13:26:38;98875.69;;;23.53;38.08
78317;BME280;67572;50.930;18.276;2023-07-22T13:29:45;98867.25;;;22.69;37.96
78317;BME280;67572;50.930;18.276;2023-07-22T13:32:49;98864.00;;;23.10;38.33
78317;BME280;67572;50.930;18.276;2023-07-22T13:35:53;98866.84;;;22.87;36.97
78317;BME280;67572;50.930;18.276;2023-07-22T13:38:56;98869.13;;;22.54;37.26
78317;BME280;67572;50.930;18.276;2023-07-22T13:42:03;98863.06;;;23.61;35.95
78317;BME280;67572;50.930;18.276;2023-07-22T13:45:09;98861.19;;;22.53;37.30
78317;BME280;67572;50.930;18.276;2023-07-22T13:48:13;98862.56;;;22.93;36.71
78317;BME280;67572;50.930;18.276;2023-07-22T13:51:16;98852.66;;;23.92;36.08
78317;BME280;67572;50.930;18.276;2023-07-22T13:54:22;98867.47;;;24.18;35.43
78317;BME280;67572;50.930;18.276;2023-07-22T13:57:27;98858.59;;;24.02;34.98
78317;BME280;67572;50.930;18.276;2023-07-22T14:00:33;98864.81;;;23.96;35.23
78317;BME280;67572;50.930;18.276;2023-07-22T14:03:37;98865.00;;;24.23;34.95
78317;BME280;67572;50.930;18.276;2023-07-22T14:06:42;98864.41;;;23.99;35.78
78317;BME280;67572;50.930;18.276;2023-07-22T14:09:46;98866.19;;;24.14;35.31
78317;BME280;67572;50.930;18.276;2023-07-22T14:12:50;98858.28;;;23.63;35.96
78317;BME280;67572;50.930;18.276;2023-07-22T14:15:55;98856.50;;;23.76;36.24
78317;BME280;67572;50.930;18.276;2023-07-22T14:19:13;98864.63;;;24.26;35.40
78317;BME280;67572;50.930;18.276;2023-07-22T14:22:17;98857.25;;;24.20;33.75
78317;BME280;67572;50.930;18.276;2023-07-22T14:28:06;98859.69;;;23.59;35.71
78317;BME280;67572;50.930;18.276;2023-07-22T14:31:10;98857.31;;;24.68;34.39
78317;BME280;67572;50.930;18.276;2023-07-22T14:34:13;98852.56;;;24.76;32.92
78317;BME280;67572;50.930;18.276;2023-07-22T14:37:17;98848.31;;;23.48;35.17
78317;BME280;67572;50.930;18.276;2023-07-22T14:40:20;98849.22;;;23.34;36.19
78317;BME280;67572;50.930;18.276;2023-07-22T14:43:25;98839.34;;;23.69;35.55
78317;BME280;67572;50.930;18.276;2023-07-22T14:46:29;98843.59;;;24.06;34.69
78317;BME280;67572;50.930;18.276;2023-07-22T14:49:32;98841.22;;;24.66;33.66
78317;BME280;67572;50.930;18.276;2023-07-22T14:52:36;98842.28;;;23.96;34.24
78317;BME280;67572;50.930;18.276;2023-07-22T14:55:39;98839.47;;;23.61;35.34
78317;BME280;67572;50.930;18.276;2023-07-22T14:58:44;98841.66;;;23.30;35.54
78317;BME280;67572;50.930;18.276;2023-07-22T15:01:51;98847.19;;;23.86;36.02
78317;BME280;67572;50.930;18.276;2023-07-22T15:04:56;98832.25;;;23.96;34.76
78317;BME280;67572;50.930;18.276;2023-07-22T15:08:00;98848.53;;;23.96;35.52
78317;BME280;67572;50.930;18.276;2023-07-22T15:11:04;98840.88;;;23.78;34.34
78317;BME280;67572;50.930;18.276;2023-07-22T15:14:09;98841.06;;;24.05;33.99
78317;BME280;67572;50.930;18.276;2023-07-22T15:17:13;98844.31;;;23.94;32.81
78317;BME280;67572;50.930;18.276;2023-07-22T15:20:19;98838.25;;;23.92;33.15
78317;BME280;67572;50.930;18.276;2023-07-22T15:23:22;98836.28;;;23.79;33.62
78317;BME280;67572;50.930;18.276;2023-07-22T15:26:26;98829.75;;;24.01;33.51
78317;BME280;67572;50.930;18.276;2023-07-22T15:29:31;98841.59;;;23.44;32.92
78317;BME280;67572;50.930;18.276;2023-07-22T15:32:38;98831.00;;;23.99;33.71
78317;BME280;67572;50.930;18.276;2023-07-22T15:35:41;98831.59;;;23.66;33.79
78317;BME280;67572;50.930;18.276;2023-07-22T15:38:46;98840.38;;;23.47;33.54
78317;BME280;67572;50.930;18.276;2023-07-22T15:41:49;98828.19;;;23.86;33.18
78317;BME280;67572;50.930;18.276;2023-07-22T15:44:55;98832.28;;;23.75;33.08
78317;BME280;67572;50.930;18.276;2023-07-22T15:47:58;98831.59;;;23.23;33.29
78317;BME280;67572;50.930;18.276;2023-07-22T15:51:02;98829.06;;;23.22;33.47
78317;BME280;67572;50.930;18.276;2023-07-22T15:54:06;98836.75;;;23.18;34.45
78317;BME280;67572;50.930;18.276;2023-07-22T15:57:09;98832.56;;;23.37;34.20
78317;BME280;67572;50.930;18.276;2023-07-22T16:00:14;98829.72;;;23.67;32.43
78317;BME280;67572;50.930;18.276;2023-07-22T16:03:18;98829.81;;;23.80;32.92
78317;BME280;67572;50.930;18.276;2023-07-22T16:06:21;98830.09;;;23.92;33.27
78317;BME280;67572;50.930;18.276;2023-07-22T16:09:34;98823.78;;;23.85;33.67
78317;BME280;67572;50.930;18.276;2023-07-22T16:12:38;98828.78;;;23.60;34.23
78317;BME280;67572;50.930;18.276;2023-07-22T16:15:43;98832.75;;;23.14;33.32
78317;BME280;67572;50.930;18.276;2023-07-22T16:18:48;98834.38;;;23.30;33.47
78317;BME280;67572;50.930;18.276;2023-07-22T16:21:51;98822.75;;;23.15;33.57
78317;BME280;67572;50.930;18.276;2023-07-22T16:24:55;98831.81;;;22.71;33.56
78317;BME280;67572;50.930;18.276;2023-07-22T16:27:58;98837.19;;;22.35;34.72